sensor_id;sensor_type;location;lat;lon;timestamp;P1;durP1;ratioP1;P2;durP2;ratioP2
23826;SDS011;12094;50.822;4.376;2022-12-29T00:00:19;1.70;;;0.90;;
23826;SDS011;12094;50.822;4.376;2022-12-29T00:02:46;5.35;;;1.60;;
23826;SDS011;12094;50.822;4.376;2022-12-29T00:05:13;2.38;;;1.25;;
23826;SDS011;12094;50.822;4.376;2022-12-29T00:07:40;2.85;;;0.95;;
23826;SDS011;12094;50.822;4.376;2022-12-29T00:10:07;2.63;;;1.02;;
23826;SDS011;12094;50.822;4.376;2022-12-29T00:12:36;2.20;;;1.35;;
23826;SDS011;12094;50.822;4.376;2022-12-29T00:15:21;2.47;;;1.13;;
23826;SDS011;12094;50.822;4.376;2022-12-29T00:18:04;1.23;;;0.98;;
23826;SDS011;12094;50.822;4.376;2022-12-29T00:20:35;2.13;;;0.85;;
23826;SDS011;12094;50.822;4.376;2022-12-29T00:23:22;2.15;;;0.60;;
23826;SDS011;12094;50.822;4.376;2022-12-29T00:26:13;4.10;;;0.85;;
23826;SDS011;12094;50.822;4.376;2022-12-29T00:29:00;4.50;;;0.88;;
23826;SDS011;12094;50.822;4.376;2022-12-29T00:31:48;3.05;;;0.90;;
23826;SDS011;12094;50.822;4.376;2022-12-29T00:34:33;2.47;;;0.85;;
23826;SDS011;12094;50.822;4.376;2022-12-29T00:40:09;2.05;;;0.77;;
23826;SDS011;12094;50.822;4.376;2022-12-29T00:42:58;3.88;;;1.00;;
23826;SDS011;12094;50.822;4.376;2022-12-29T00:45:45;5.35;;;1.10;;
23826;SDS011;12094;50.822;4.376;2022-12-29T00:54:10;1.75;;;0.82;;
23826;SDS011;12094;50.822;4.376;2022-12-29T00:56:40;2.55;;;1.00;;
23826;SDS011;12094;50.822;4.376;2022-12-29T00:59:08;6.35;;;1.00;;
23826;SDS011;12094;50.822;4.376;2022-12-29T01:01:36;7.72;;;1.33;;
23826;SDS011;12094;50.822;4.376;2022-12-29T01:04:05;3.33;;;0.90;;
23826;SDS011;12094;50.822;4.376;2022-12-29T01:06:32;2.42;;;1.20;;
23826;SDS011;12094;50.822;4.376;2022-12-29T01:09:01;1.33;;;0.55;;
23826;SDS011;12094;50.822;4.376;2022-12-29T01:11:47;4.30;;;0.98;;
23826;SDS011;12094;50.822;4.376;2022-12-29T01:14:16;4.97;;;0.85;;
23826;SDS011;12094;50.822;4.376;2022-12-29T01:16:54;4.32;;;0.90;;
23826;SDS011;12094;50.822;4.376;2022-12-29T01:19:22;3.30;;;0.47;;
23826;SDS011;12094;50.822;4.376;2022-12-29T01:21:50;2.55;;;0.73;;
23826;SDS011;12094;50.822;4.376;2022-12-29T01:24:19;4.50;;;1.02;;
23826;SDS011;12094;50.822;4.376;2022-12-29T01:26:47;3.92;;;0.80;;
23826;SDS011;12094;50.822;4.376;2022-12-29T01:29:15;4.43;;;1.40;;
23826;SDS011;12094;50.822;4.376;2022-12-29T01:31:48;4.30;;;1.10;;
23826;SDS011;12094;50.822;4.376;2022-12-29T01:34:16;4.55;;;1.38;;
23826;SDS011;12094;50.822;4.376;2022-12-29T01:36:45;7.43;;;1.35;;
23826;SDS011;12094;50.822;4.376;2022-12-29T01:39:12;5.22;;;1.40;;
23826;SDS011;12094;50.822;4.376;2022-12-29T01:41:40;3.08;;;1.35;;
23826;SDS011;12094;50.822;4.376;2022-12-29T01:50:12;2.22;;;0.90;;
23826;SDS011;12094;50.822;4.376;2022-12-29T01:52:56;3.35;;;1.00;;
23826;SDS011;12094;50.822;4.376;2022-12-29T01:55:37;2.38;;;0.80;;
23826;SDS011;12094;50.822;4.376;2022-12-29T01:58:17;2.10;;;0.80;;
23826;SDS011;12094;50.822;4.376;2022-12-29T02:00:48;3.58;;;1.02;;
23826;SDS011;12094;50.822;4.376;2022-12-29T02:03:16;2.60;;;0.73;;
23826;SDS011;12094;50.822;4.376;2022-12-29T02:08:36;4.45;;;0.80;;
23826;SDS011;12094;50.822;4.376;2022-12-29T02:11:05;1.70;;;0.40;;
23826;SDS011;12094;50.822;4.376;2022-12-29T02:13:33;2.13;;;0.60;;
23826;SDS011;12094;50.822;4.376;2022-12-29T02:16:09;3.25;;;0.82;;
23826;SDS011;12094;50.822;4.376;2022-12-29T02:18:51;2.15;;;0.40;;
23826;SDS011;12094;50.822;4.376;2022-12-29T02:24:46;4.43;;;0.65;;
23826;SDS011;12094;50.822;4.376;2022-12-29T02:41:21;5.32;;;0.70;;
23826;SDS011;12094;50.822;4.376;2022-12-29T02:44:25;7.43;;;0.80;;
23826;SDS011;12094;50.822;4.376;2022-12-29T02:46:56;5.40;;;0.80;;
23826;SDS011;12094;50.822;4.376;2022-12-29T02:49:33;4.07;;;0.40;;
23826;SDS011;12094;50.822;4.376;2022-12-29T02:52:18;7.45;;;0.43;;
23826;SDS011;12094;50.822;4.376;2022-12-29T02:54:53;5.82;;;0.38;;
23826;SDS011;12094;50.822;4.376;2022-12-29T02:59:48;2.30;;;0.50;;
23826;SDS011;12094;50.822;4.376;2022-12-29T03:11:04;7.88;;;0.70;;
23826;SDS011;12094;50.822;4.376;2022-12-29T03:13:56;5.40;;;1.20;;
23826;SDS011;12094;50.822;4.376;2022-12-29T03:17:19;6.82;;;1.15;;
23826;SDS011;12094;50.822;4.376;2022-12-29T03:20:10;4.68;;;1.10;;
23826;SDS011;12094;50.822;4.376;2022-12-29T03:22:47;4.53;;;0.60;;
23826;SDS011;12094;50.822;4.376;2022-12-29T03:25:25;3.20;;;0.63;;
23826;SDS011;12094;50.822;4.376;2022-12-29T03:28:06;3.42;;;0.50;;
23826;SDS011;12094;50.822;4.376;2022-12-29T03:30:45;4.25;;;0.80;;
23826;SDS011;12094;50.822;4.376;2022-12-29T03:33:19;3.13;;;0.57;;
23826;SDS011;12094;50.822;4.376;2022-12-29T03:35:49;2.90;;;0.60;;
23826;SDS011;12094;50.822;4.376;2022-12-29T03:38:23;6.15;;;0.60;;
23826;SDS011;12094;50.822;4.376;2022-12-29T03:40:58;6.13;;;0.82;;
23826;SDS011;12094;50.822;4.376;2022-12-29T03:43:29;6.55;;;0.93;;
23826;SDS011;12094;50.822;4.376;2022-12-29T03:45:59;3.83;;;0.90;;
23826;SDS011;12094;50.822;4.376;2022-12-29T03:48:26;4.95;;;0.88;;
23826;SDS011;12094;50.822;4.376;2022-12-29T03:50:55;5.00;;;1.13;;
23826;SDS011;12094;50.822;4.376;2022-12-29T03:53:23;7.65;;;1.40;;
23826;SDS011;12094;50.822;4.376;2022-12-29T03:58:50;6.47;;;1.23;;
23826;SDS011;12094;50.822;4.376;2022-12-29T04:01:24;8.23;;;1.10;;
23826;SDS011;12094;50.822;4.376;2022-12-29T04:03:52;4.80;;;0.70;;
23826;SDS011;12094;50.822;4.376;2022-12-29T04:06:19;6.10;;;0.93;;
23826;SDS011;12094;50.822;4.376;2022-12-29T04:09:02;2.10;;;0.73;;
23826;SDS011;12094;50.822;4.376;2022-12-29T04:11:33;8.90;;;1.00;;
23826;SDS011;12094;50.822;4.376;2022-12-29T04:14:03;5.28;;;0.77;;
23826;SDS011;12094;50.822;4.376;2022-12-29T04:16:32;6.90;;;0.93;;
23826;SDS011;12094;50.822;4.376;2022-12-29T04:19:03;6.07;;;1.00;;
23826;SDS011;12094;50.822;4.376;2022-12-29T04:21:31;2.78;;;0.70;;
23826;SDS011;12094;50.822;4.376;2022-12-29T04:23:58;10.88;;;1.00;;
23826;SDS011;12094;50.822;4.376;2022-12-29T04:26:31;4.75;;;0.88;;
23826;SDS011;12094;50.822;4.376;2022-12-29T04:29:11;5.32;;;0.70;;
23826;SDS011;12094;50.822;4.376;2022-12-29T04:32:01;3.13;;;1.15;;
23826;SDS011;12094;50.822;4.376;2022-12-29T04:34:32;8.65;;;0.80;;
23826;SDS011;12094;50.822;4.376;2022-12-29T04:36:59;2.90;;;0.50;;
23826;SDS011;12094;50.822;4.376;2022-12-29T04:39:27;4.25;;;1.27;;
23826;SDS011;12094;50.822;4.376;2022-12-29T04:41:54;5.95;;;0.77;;
23826;SDS011;12094;50.822;4.376;2022-12-29T04:44:22;5.78;;;0.90;;
23826;SDS011;12094;50.822;4.376;2022-12-29T04:47:22;5.38;;;0.95;;
23826;SDS011;12094;50.822;4.376;2022-12-29T04:50:15;6.07;;;0.98;;
23826;SDS011;12094;50.822;4.376;2022-12-29T04:52:51;10.25;;;1.30;;
23826;SDS011;12094;50.822;4.376;2022-12-29T04:55:20;7.65;;;1.00;;
23826;SDS011;12094;50.822;4.376;2022-12-29T04:57:48;11.95;;;1.13;;
23826;SDS011;12094;50.822;4.376;2022-12-29T05:00:18;10.50;;;1.42;;
23826;SDS011;12094;50.822;4.376;2022-12-29T05:02:46;1.95;;;0.75;;
23826;SDS011;12094;50.822;4.376;2022-12-29T05:05:14;4.80;;;1.08;;
23826;SDS011;12094;50.822;4.376;2022-12-29T05:07:46;7.70;;;0.90;;
23826;SDS011;12094;50.822;4.376;2022-12-29T05:10:13;6.65;;;1.08;;
23826;SDS011;12094;50.822;4.376;2022-12-29T05:12:41;6.32;;;1.00;;
23826;SDS011;12094;50.822;4.376;2022-12-29T05:15:08;8.60;;;1.17;;
23826;SDS011;12094;50.822;4.376;2022-12-29T05:17:37;5.72;;;1.05;;
23826;SDS011;12094;50.822;4.376;2022-12-29T05:20:06;5.47;;;1.13;;
23826;SDS011;12094;50.822;4.376;2022-12-29T05:22:36;9.02;;;1.25;;
23826;SDS011;12094;50.822;4.376;2022-12-29T05:25:05;4.78;;;0.70;;
23826;SDS011;12094;50.822;4.376;2022-12-29T05:27:44;8.95;;;1.17;;
23826;SDS011;12094;50.822;4.376;2022-12-29T05:30:23;8.07;;;1.40;;
23826;SDS011;12094;50.822;4.376;2022-12-29T05:32:53;6.80;;;1.20;;
23826;SDS011;12094;50.822;4.376;2022-12-29T05:35:21;5.05;;;1.23;;
23826;SDS011;12094;50.822;4.376;2022-12-29T05:37:48;6.85;;;1.33;;
23826;SDS011;12094;50.822;4.376;2022-12-29T05:40:15;8.43;;;1.23;;
23826;SDS011;12094;50.822;4.376;2022-12-29T05:42:43;8.48;;;1.08;;
23826;SDS011;12094;50.822;4.376;2022-12-29T05:45:32;9.98;;;1.40;;
23826;SDS011;12094;50.822;4.376;2022-12-29T05:48:25;3.55;;;0.80;;
23826;SDS011;12094;50.822;4.376;2022-12-29T05:51:23;8.98;;;1.15;;
23826;SDS011;12094;50.822;4.376;2022-12-29T05:53:52;11.52;;;1.50;;
23826;SDS011;12094;50.822;4.376;2022-12-29T05:56:21;10.65;;;1.48;;
23826;SDS011;12094;50.822;4.376;2022-12-29T05:58:56;9.45;;;1.52;;
23826;SDS011;12094;50.822;4.376;2022-12-29T06:01:23;11.10;;;1.80;;
23826;SDS011;12094;50.822;4.376;2022-12-29T06:03:51;9.02;;;1.42;;
23826;SDS011;12094;50.822;4.376;2022-12-29T06:06:19;7.60;;;1.63;;
23826;SDS011;12094;50.822;4.376;2022-12-29T06:08:47;11.52;;;1.63;;
23826;SDS011;12094;50.822;4.376;2022-12-29T06:11:14;9.73;;;1.65;;
23826;SDS011;12094;50.822;4.376;2022-12-29T06:13:48;11.60;;;1.27;;
23826;SDS011;12094;50.822;4.376;2022-12-29T06:16:15;14.02;;;1.77;;
23826;SDS011;12094;50.822;4.376;2022-12-29T06:18:43;7.60;;;1.45;;
23826;SDS011;12094;50.822;4.376;2022-12-29T06:21:10;6.35;;;0.90;;
23826;SDS011;12094;50.822;4.376;2022-12-29T06:23:37;7.72;;;1.45;;
23826;SDS011;12094;50.822;4.376;2022-12-29T06:26:08;8.52;;;1.58;;
23826;SDS011;12094;50.822;4.376;2022-12-29T06:28:40;8.65;;;1.80;;
23826;SDS011;12094;50.822;4.376;2022-12-29T06:31:11;7.55;;;1.17;;
23826;SDS011;12094;50.822;4.376;2022-12-29T06:33:38;10.05;;;1.30;;
23826;SDS011;12094;50.822;4.376;2022-12-29T06:36:05;12.88;;;1.63;;
23826;SDS011;12094;50.822;4.376;2022-12-29T06:38:33;10.68;;;1.75;;
23826;SDS011;12094;50.822;4.376;2022-12-29T06:41:01;7.95;;;1.02;;
23826;SDS011;12094;50.822;4.376;2022-12-29T06:46:14;4.95;;;0.90;;
23826;SDS011;12094;50.822;4.376;2022-12-29T06:48:42;9.45;;;1.10;;
23826;SDS011;12094;50.822;4.376;2022-12-29T06:51:11;10.13;;;1.20;;
23826;SDS011;12094;50.822;4.376;2022-12-29T06:53:40;7.65;;;1.30;;
23826;SDS011;12094;50.822;4.376;2022-12-29T06:56:07;10.98;;;1.50;;
23826;SDS011;12094;50.822;4.376;2022-12-29T06:58:34;9.45;;;2.00;;
23826;SDS011;12094;50.822;4.376;2022-12-29T07:01:01;10.73;;;1.30;;
23826;SDS011;12094;50.822;4.376;2022-12-29T07:03:28;7.85;;;1.50;;
23826;SDS011;12094;50.822;4.376;2022-12-29T07:05:55;10.52;;;1.33;;
23826;SDS011;12094;50.822;4.376;2022-12-29T07:08:24;4.18;;;0.93;;
23826;SDS011;12094;50.822;4.376;2022-12-29T07:10:51;11.93;;;1.73;;
23826;SDS011;12094;50.822;4.376;2022-12-29T07:13:18;8.02;;;1.40;;
23826;SDS011;12094;50.822;4.376;2022-12-29T07:15:46;10.98;;;1.20;;
23826;SDS011;12094;50.822;4.376;2022-12-29T07:18:13;11.52;;;1.40;;
23826;SDS011;12094;50.822;4.376;2022-12-29T07:20:39;10.73;;;1.17;;
23826;SDS011;12094;50.822;4.376;2022-12-29T07:23:06;6.57;;;1.05;;
23826;SDS011;12094;50.822;4.376;2022-12-29T07:25:33;12.30;;;1.85;;
23826;SDS011;12094;50.822;4.376;2022-12-29T07:28:02;9.85;;;1.15;;
23826;SDS011;12094;50.822;4.376;2022-12-29T07:30:30;13.48;;;1.55;;
23826;SDS011;12094;50.822;4.376;2022-12-29T07:32:57;15.52;;;1.88;;
23826;SDS011;12094;50.822;4.376;2022-12-29T07:35:23;9.93;;;1.77;;
23826;SDS011;12094;50.822;4.376;2022-12-29T07:37:51;13.02;;;2.03;;
23826;SDS011;12094;50.822;4.376;2022-12-29T07:40:18;8.82;;;1.35;;
23826;SDS011;12094;50.822;4.376;2022-12-29T07:42:46;14.80;;;2.58;;
23826;SDS011;12094;50.822;4.376;2022-12-29T07:45:26;10.23;;;1.38;;
23826;SDS011;12094;50.822;4.376;2022-12-29T07:48:04;10.00;;;1.40;;
23826;SDS011;12094;50.822;4.376;2022-12-29T07:50:34;10.38;;;1.50;;
23826;SDS011;12094;50.822;4.376;2022-12-29T07:53:02;11.75;;;1.25;;
23826;SDS011;12094;50.822;4.376;2022-12-29T07:55:29;11.55;;;1.90;;
23826;SDS011;12094;50.822;4.376;2022-12-29T07:57:58;10.50;;;1.45;;
23826;SDS011;12094;50.822;4.376;2022-12-29T08:00:25;4.53;;;1.08;;
23826;SDS011;12094;50.822;4.376;2022-12-29T08:02:53;12.57;;;2.00;;
23826;SDS011;12094;50.822;4.376;2022-12-29T08:05:20;12.15;;;1.85;;
23826;SDS011;12094;50.822;4.376;2022-12-29T08:07:50;7.35;;;1.25;;
23826;SDS011;12094;50.822;4.376;2022-12-29T08:10:17;8.25;;;1.60;;
23826;SDS011;12094;50.822;4.376;2022-12-29T08:12:44;9.60;;;1.85;;
23826;SDS011;12094;50.822;4.376;2022-12-29T08:15:12;4.95;;;0.85;;
23826;SDS011;12094;50.822;4.376;2022-12-29T08:17:39;12.25;;;1.67;;
23826;SDS011;12094;50.822;4.376;2022-12-29T08:20:09;14.10;;;2.35;;
23826;SDS011;12094;50.822;4.376;2022-12-29T08:22:41;15.48;;;1.77;;
23826;SDS011;12094;50.822;4.376;2022-12-29T08:25:12;8.02;;;1.33;;
23826;SDS011;12094;50.822;4.376;2022-12-29T08:27:40;11.57;;;1.80;;
23826;SDS011;12094;50.822;4.376;2022-12-29T08:30:08;14.25;;;2.35;;
23826;SDS011;12094;50.822;4.376;2022-12-29T08:32:36;7.93;;;1.50;;
23826;SDS011;12094;50.822;4.376;2022-12-29T08:35:04;6.57;;;0.98;;
23826;SDS011;12094;50.822;4.376;2022-12-29T08:37:32;7.38;;;1.20;;
23826;SDS011;12094;50.822;4.376;2022-12-29T08:39:59;10.07;;;1.58;;
23826;SDS011;12094;50.822;4.376;2022-12-29T08:42:31;9.25;;;1.45;;
23826;SDS011;12094;50.822;4.376;2022-12-29T08:45:02;14.40;;;1.88;;
23826;SDS011;12094;50.822;4.376;2022-12-29T08:47:29;13.13;;;1.98;;
23826;SDS011;12094;50.822;4.376;2022-12-29T08:49:57;8.73;;;1.65;;
23826;SDS011;12094;50.822;4.376;2022-12-29T08:52:25;14.60;;;2.20;;
23826;SDS011;12094;50.822;4.376;2022-12-29T08:54:52;15.05;;;1.80;;
23826;SDS011;12094;50.822;4.376;2022-12-29T08:57:20;17.25;;;2.38;;
23826;SDS011;12094;50.822;4.376;2022-12-29T09:00:03;17.52;;;2.10;;
23826;SDS011;12094;50.822;4.376;2022-12-29T09:02:32;9.77;;;1.38;;
23826;SDS011;12094;50.822;4.376;2022-12-29T09:05:02;13.38;;;1.88;;
23826;SDS011;12094;50.822;4.376;2022-12-29T09:10:23;14.07;;;2.17;;
23826;SDS011;12094;50.822;4.376;2022-12-29T09:12:51;7.43;;;1.30;;
23826;SDS011;12094;50.822;4.376;2022-12-29T09:15:18;13.52;;;1.58;;
23826;SDS011;12094;50.822;4.376;2022-12-29T09:17:45;13.77;;;2.30;;
23826;SDS011;12094;50.822;4.376;2022-12-29T09:20:13;19.45;;;3.03;;
23826;SDS011;12094;50.822;4.376;2022-12-29T09:22:42;9.70;;;1.70;;
23826;SDS011;12094;50.822;4.376;2022-12-29T09:25:11;12.40;;;1.60;;
23826;SDS011;12094;50.822;4.376;2022-12-29T09:27:38;16.70;;;2.15;;
23826;SDS011;12094;50.822;4.376;2022-12-29T09:30:06;14.05;;;1.80;;
23826;SDS011;12094;50.822;4.376;2022-12-29T09:32:36;13.35;;;1.67;;
23826;SDS011;12094;50.822;4.376;2022-12-29T09:35:10;16.88;;;2.10;;
23826;SDS011;12094;50.822;4.376;2022-12-29T09:37:38;13.23;;;2.47;;
23826;SDS011;12094;50.822;4.376;2022-12-29T09:40:05;11.95;;;2.25;;
23826;SDS011;12094;50.822;4.376;2022-12-29T09:45:05;8.55;;;1.60;;
23826;SDS011;12094;50.822;4.376;2022-12-29T09:47:34;14.07;;;1.85;;
23826;SDS011;12094;50.822;4.376;2022-12-29T09:50:08;12.77;;;2.00;;
23826;SDS011;12094;50.822;4.376;2022-12-29T09:52:54;14.93;;;2.22;;
23826;SDS011;12094;50.822;4.376;2022-12-29T09:55:33;6.25;;;1.50;;
23826;SDS011;12094;50.822;4.376;2022-12-29T09:58:27;11.77;;;1.88;;
23826;SDS011;12094;50.822;4.376;2022-12-29T10:03:57;10.18;;;1.80;;
23826;SDS011;12094;50.822;4.376;2022-12-29T10:06:39;12.65;;;1.90;;
23826;SDS011;12094;50.822;4.376;2022-12-29T10:18:19;11.45;;;1.83;;
23826;SDS011;12094;50.822;4.376;2022-12-29T10:23:50;14.70;;;2.40;;
23826;SDS011;12094;50.822;4.376;2022-12-29T10:26:20;11.30;;;2.13;;
23826;SDS011;12094;50.822;4.376;2022-12-29T10:28:53;17.67;;;2.38;;
23826;SDS011;12094;50.822;4.376;2022-12-29T10:31:46;21.33;;;2.88;;
23826;SDS011;12094;50.822;4.376;2022-12-29T10:37:02;16.13;;;2.25;;
23826;SDS011;12094;50.822;4.376;2022-12-29T10:39:38;15.93;;;3.17;;
23826;SDS011;12094;50.822;4.376;2022-12-29T10:42:19;17.85;;;2.60;;
23826;SDS011;12094;50.822;4.376;2022-12-29T10:44:50;9.68;;;1.92;;
23826;SDS011;12094;50.822;4.376;2022-12-29T10:47:19;9.00;;;1.70;;
23826;SDS011;12094;50.822;4.376;2022-12-29T10:49:50;7.60;;;1.15;;
23826;SDS011;12094;50.822;4.376;2022-12-29T10:52:18;16.27;;;2.15;;
23826;SDS011;12094;50.822;4.376;2022-12-29T10:54:49;14.70;;;2.08;;
23826;SDS011;12094;50.822;4.376;2022-12-29T10:59:53;13.38;;;2.15;;
23826;SDS011;12094;50.822;4.376;2022-12-29T11:05:35;11.75;;;2.33;;
23826;SDS011;12094;50.822;4.376;2022-12-29T11:08:15;7.03;;;1.33;;
23826;SDS011;12094;50.822;4.376;2022-12-29T11:10:45;17.88;;;2.88;;
23826;SDS011;12094;50.822;4.376;2022-12-29T11:13:29;13.00;;;2.25;;
23826;SDS011;12094;50.822;4.376;2022-12-29T11:16:04;20.08;;;2.90;;
23826;SDS011;12094;50.822;4.376;2022-12-29T11:21:04;18.58;;;2.65;;
23826;SDS011;12094;50.822;4.376;2022-12-29T11:23:56;16.50;;;2.20;;
23826;SDS011;12094;50.822;4.376;2022-12-29T11:26:28;8.73;;;1.40;;
23826;SDS011;12094;50.822;4.376;2022-12-29T11:29:04;17.75;;;2.85;;
23826;SDS011;12094;50.822;4.376;2022-12-29T11:31:41;20.92;;;2.58;;
23826;SDS011;12094;50.822;4.376;2022-12-29T11:34:17;12.05;;;1.92;;
23826;SDS011;12094;50.822;4.376;2022-12-29T11:36:46;9.00;;;1.52;;
23826;SDS011;12094;50.822;4.376;2022-12-29T11:39:28;13.57;;;1.83;;
23826;SDS011;12094;50.822;4.376;2022-12-29T11:42:22;10.50;;;2.03;;
23826;SDS011;12094;50.822;4.376;2022-12-29T11:44:58;15.88;;;2.58;;
23826;SDS011;12094;50.822;4.376;2022-12-29T11:50:56;17.58;;;2.25;;
23826;SDS011;12094;50.822;4.376;2022-12-29T11:53:37;11.30;;;1.58;;
23826;SDS011;12094;50.822;4.376;2022-12-29T11:56:17;14.40;;;2.53;;
23826;SDS011;12094;50.822;4.376;2022-12-29T11:58:49;15.95;;;1.75;;
23826;SDS011;12094;50.822;4.376;2022-12-29T12:01:18;13.48;;;2.42;;
23826;SDS011;12094;50.822;4.376;2022-12-29T12:06:32;16.45;;;2.00;;
23826;SDS011;12094;50.822;4.376;2022-12-29T12:09:04;17.70;;;2.50;;
23826;SDS011;12094;50.822;4.376;2022-12-29T12:11:44;19.05;;;2.80;;
23826;SDS011;12094;50.822;4.376;2022-12-29T12:17:37;18.67;;;2.30;;
23826;SDS011;12094;50.822;4.376;2022-12-29T12:20:22;13.35;;;1.90;;
23826;SDS011;12094;50.822;4.376;2022-12-29T12:22:59;14.43;;;2.30;;
23826;SDS011;12094;50.822;4.376;2022-12-29T12:25:45;18.30;;;2.40;;
23826;SDS011;12094;50.822;4.376;2022-12-29T12:28:45;14.82;;;2.38;;
23826;SDS011;12094;50.822;4.376;2022-12-29T12:33:57;12.38;;;2.08;;
23826;SDS011;12094;50.822;4.376;2022-12-29T12:45:27;18.88;;;2.13;;
23826;SDS011;12094;50.822;4.376;2022-12-29T12:51:15;14.13;;;2.00;;
23826;SDS011;12094;50.822;4.376;2022-12-29T12:56:45;14.95;;;2.08;;
23826;SDS011;12094;50.822;4.376;2022-12-29T12:59:29;18.52;;;2.53;;
23826;SDS011;12094;50.822;4.376;2022-12-29T13:24:40;8.35;;;1.65;;
23826;SDS011;12094;50.822;4.376;2022-12-29T13:30:56;15.70;;;2.40;;
23826;SDS011;12094;50.822;4.376;2022-12-29T13:40:49;17.45;;;2.20;;
23826;SDS011;12094;50.822;4.376;2022-12-29T13:49:36;17.73;;;2.22;;
23826;SDS011;12094;50.822;4.376;2022-12-29T13:52:15;21.02;;;2.55;;
23826;SDS011;12094;50.822;4.376;2022-12-29T13:54:45;18.10;;;2.25;;
23826;SDS011;12094;50.822;4.376;2022-12-29T13:57:47;14.80;;;2.10;;
23826;SDS011;12094;50.822;4.376;2022-12-29T14:00:15;20.90;;;2.83;;
23826;SDS011;12094;50.822;4.376;2022-12-29T14:07:57;15.48;;;2.17;;
23826;SDS011;12094;50.822;4.376;2022-12-29T14:10:46;15.23;;;2.47;;
23826;SDS011;12094;50.822;4.376;2022-12-29T14:13:16;19.25;;;2.25;;
23826;SDS011;12094;50.822;4.376;2022-12-29T14:16:04;16.92;;;2.83;;
23826;SDS011;12094;50.822;4.376;2022-12-29T14:18:41;12.77;;;2.05;;
23826;SDS011;12094;50.822;4.376;2022-12-29T14:23:45;14.63;;;2.50;;
23826;SDS011;12094;50.822;4.376;2022-12-29T14:26:15;12.60;;;1.90;;
23826;SDS011;12094;50.822;4.376;2022-12-29T14:28:45;13.75;;;2.30;;
23826;SDS011;12094;50.822;4.376;2022-12-29T14:34:29;14.77;;;2.38;;
23826;SDS011;12094;50.822;4.376;2022-12-29T14:36:33;16.48;;;2.38;;
23826;SDS011;12094;50.822;4.376;2022-12-29T14:42:03;16.85;;;2.30;;
23826;SDS011;12094;50.822;4.376;2022-12-29T14:44:54;16.02;;;2.80;;
23826;SDS011;12094;50.822;4.376;2022-12-29T14:47:36;18.58;;;3.00;;
23826;SDS011;12094;50.822;4.376;2022-12-29T14:50:10;15.75;;;2.35;;
23826;SDS011;12094;50.822;4.376;2022-12-29T14:52:57;20.95;;;2.97;;
23826;SDS011;12094;50.822;4.376;2022-12-29T14:58:35;9.13;;;1.73;;
23826;SDS011;12094;50.822;4.376;2022-12-29T15:01:19;9.70;;;2.00;;
23826;SDS011;12094;50.822;4.376;2022-12-29T15:03:50;9.60;;;2.05;;
23826;SDS011;12094;50.822;4.376;2022-12-29T15:06:21;10.27;;;2.30;;
23826;SDS011;12094;50.822;4.376;2022-12-29T15:09:06;10.68;;;1.65;;
23826;SDS011;12094;50.822;4.376;2022-12-29T15:11:53;6.32;;;1.45;;
23826;SDS011;12094;50.822;4.376;2022-12-29T15:14:31;11.52;;;1.70;;
23826;SDS011;12094;50.822;4.376;2022-12-29T15:20:19;16.23;;;2.30;;
23826;SDS011;12094;50.822;4.376;2022-12-29T15:23:00;10.35;;;1.27;;
23826;SDS011;12094;50.822;4.376;2022-12-29T15:25:29;8.10;;;1.40;;
23826;SDS011;12094;50.822;4.376;2022-12-29T15:28:10;11.05;;;1.33;;
23826;SDS011;12094;50.822;4.376;2022-12-29T15:30:53;14.25;;;1.73;;
23826;SDS011;12094;50.822;4.376;2022-12-29T15:33:22;9.48;;;1.60;;
23826;SDS011;12094;50.822;4.376;2022-12-29T15:35:53;9.57;;;1.80;;
23826;SDS011;12094;50.822;4.376;2022-12-29T15:38:23;10.52;;;1.45;;
23826;SDS011;12094;50.822;4.376;2022-12-29T15:44:32;9.85;;;1.85;;
23826;SDS011;12094;50.822;4.376;2022-12-29T15:47:08;10.40;;;1.90;;
23826;SDS011;12094;50.822;4.376;2022-12-29T15:49:50;10.32;;;1.90;;
23826;SDS011;12094;50.822;4.376;2022-12-29T15:52:23;12.10;;;2.13;;
23826;SDS011;12094;50.822;4.376;2022-12-29T15:54:51;10.73;;;2.42;;
23826;SDS011;12094;50.822;4.376;2022-12-29T15:57:24;7.72;;;2.03;;
23826;SDS011;12094;50.822;4.376;2022-12-29T15:59:55;8.95;;;2.22;;
23826;SDS011;12094;50.822;4.376;2022-12-29T16:02:22;14.00;;;2.53;;
23826;SDS011;12094;50.822;4.376;2022-12-29T16:04:51;13.70;;;2.80;;
23826;SDS011;12094;50.822;4.376;2022-12-29T16:07:38;15.43;;;3.28;;
23826;SDS011;12094;50.822;4.376;2022-12-29T16:10:38;17.17;;;3.92;;
23826;SDS011;12094;50.822;4.376;2022-12-29T16:13:19;13.20;;;2.92;;
23826;SDS011;12094;50.822;4.376;2022-12-29T16:15:51;16.35;;;2.95;;
23826;SDS011;12094;50.822;4.376;2022-12-29T16:18:29;14.95;;;3.17;;
23826;SDS011;12094;50.822;4.376;2022-12-29T16:21:05;18.67;;;3.50;;
23826;SDS011;12094;50.822;4.376;2022-12-29T16:23:41;24.10;;;4.13;;
23826;SDS011;12094;50.822;4.376;2022-12-29T16:26:17;14.98;;;3.53;;
23826;SDS011;12094;50.822;4.376;2022-12-29T16:28:50;13.48;;;3.15;;
23826;SDS011;12094;50.822;4.376;2022-12-29T16:31:23;16.17;;;3.08;;
23826;SDS011;12094;50.822;4.376;2022-12-29T16:33:53;13.00;;;3.00;;
23826;SDS011;12094;50.822;4.376;2022-12-29T16:41:48;22.52;;;3.60;;
23826;SDS011;12094;50.822;4.376;2022-12-29T16:44:28;17.08;;;3.10;;
23826;SDS011;12094;50.822;4.376;2022-12-29T16:47:04;19.63;;;4.05;;
23826;SDS011;12094;50.822;4.376;2022-12-29T16:49:47;19.17;;;3.40;;
23826;SDS011;12094;50.822;4.376;2022-12-29T16:52:21;23.83;;;3.38;;
23826;SDS011;12094;50.822;4.376;2022-12-29T16:57:35;22.17;;;3.53;;
23826;SDS011;12094;50.822;4.376;2022-12-29T17:00:05;18.33;;;3.40;;
23826;SDS011;12094;50.822;4.376;2022-12-29T17:02:34;21.80;;;4.00;;
23826;SDS011;12094;50.822;4.376;2022-12-29T17:05:20;20.13;;;3.92;;
23826;SDS011;12094;50.822;4.376;2022-12-29T17:07:47;20.67;;;3.10;;
23826;SDS011;12094;50.822;4.376;2022-12-29T17:10:18;21.45;;;3.35;;
23826;SDS011;12094;50.822;4.376;2022-12-29T17:12:45;21.38;;;3.45;;
23826;SDS011;12094;50.822;4.376;2022-12-29T17:15:17;25.92;;;3.83;;
23826;SDS011;12094;50.822;4.376;2022-12-29T17:17:53;18.15;;;2.85;;
23826;SDS011;12094;50.822;4.376;2022-12-29T17:20:27;24.27;;;4.50;;
23826;SDS011;12094;50.822;4.376;2022-12-29T17:22:57;19.40;;;2.92;;
23826;SDS011;12094;50.822;4.376;2022-12-29T17:25:28;16.65;;;3.00;;
23826;SDS011;12094;50.822;4.376;2022-12-29T17:28:20;24.52;;;3.05;;
23826;SDS011;12094;50.822;4.376;2022-12-29T17:30:50;20.00;;;3.10;;
23826;SDS011;12094;50.822;4.376;2022-12-29T17:33:21;18.17;;;2.28;;
23826;SDS011;12094;50.822;4.376;2022-12-29T17:35:48;26.85;;;3.15;;
23826;SDS011;12094;50.822;4.376;2022-12-29T17:38:25;17.50;;;3.58;;
23826;SDS011;12094;50.822;4.376;2022-12-29T17:41:00;22.98;;;3.15;;
23826;SDS011;12094;50.822;4.376;2022-12-29T17:43:30;21.70;;;2.95;;
23826;SDS011;12094;50.822;4.376;2022-12-29T17:46:02;17.48;;;2.65;;
23826;SDS011;12094;50.822;4.376;2022-12-29T17:48:32;16.33;;;3.28;;
23826;SDS011;12094;50.822;4.376;2022-12-29T17:50:59;15.35;;;3.33;;
23826;SDS011;12094;50.822;4.376;2022-12-29T17:53:27;11.52;;;2.35;;
23826;SDS011;12094;50.822;4.376;2022-12-29T17:55:56;9.73;;;1.70;;
23826;SDS011;12094;50.822;4.376;2022-12-29T17:58:24;8.45;;;2.00;;
23826;SDS011;12094;50.822;4.376;2022-12-29T18:00:54;14.68;;;2.47;;
23826;SDS011;12094;50.822;4.376;2022-12-29T18:03:29;17.60;;;2.60;;
23826;SDS011;12094;50.822;4.376;2022-12-29T18:06:00;10.38;;;2.72;;
23826;SDS011;12094;50.822;4.376;2022-12-29T18:08:30;17.48;;;2.85;;
23826;SDS011;12094;50.822;4.376;2022-12-29T18:10:58;14.80;;;3.33;;
23826;SDS011;12094;50.822;4.376;2022-12-29T18:13:26;12.52;;;2.88;;
23826;SDS011;12094;50.822;4.376;2022-12-29T18:16:11;15.80;;;2.50;;
23826;SDS011;12094;50.822;4.376;2022-12-29T18:18:39;18.48;;;2.40;;